Time;durP1;ratioP1;P1;durP2;ratioP2;P2;SDS_P1;SDS_P2;PMS_P1;PMS_P2;Temp;Humidity;BMP_temperature;BMP_pressure;BME280_temperature;BME280_humidity;BME280_pressure;Samples;Min_cycle;Max_cycle;Signal;HPM_P1;HPM_P2
2021/01/26 00:00:50;;;;;;;3.28;1.58;;;2.00;99.90;;;;;;5094619;28;20542;-63
2021/01/26 00:03:16;;;;;;;1.70;0.20;;;2.00;99.90;;;;;;5093779;28;20220;-62
2021/01/26 00:05:42;;;;;;;5.83;4.10;;;2.00;99.90;;;;;;5094069;28;20176;-64
2021/01/26 00:08:08;;;;;;;1.70;0.20;;;2.00;99.90;;;;;;5102903;28;20184;-62
2021/01/26 00:10:36;;;;;;;6.87;4.57;;;2.00;99.90;;;;;;5095332;28;20542;-63
2021/01/26 00:13:03;;;;;;;1.70;0.20;;;2.00;99.90;;;;;;5092549;28;20944;-63
2021/01/26 00:15:28;;;;;;;2.50;0.43;;;2.00;99.90;;;;;;5096758;28;20192;-63
2021/01/26 00:17:55;;;;;;;1.70;0.23;;;2.00;99.90;;;;;;5093919;28;20770;-63
2021/01/26 00:20:21;;;;;;;1.73;0.30;;;2.00;99.90;;;;;;5100436;28;20180;-63
2021/01/26 00:22:46;;;;;;;7.75;5.47;;;2.00;99.90;;;;;;5106777;28;20240;-63
2021/01/26 00:25:17;;;;;;;4.10;2.20;;;2.00;99.90;;;;;;5102526;28;20207;-63
2021/01/26 00:27:43;;;;;;;1.70;0.20;;;2.00;99.90;;;;;;5103772;28;20556;-63
2021/01/26 00:30:14;;;;;;;1.90;0.63;;;2.00;99.90;;;;;;5104122;28;20250;-63
2021/01/26 00:32:39;;;;;;;2.03;0.45;;;2.00;99.90;;;;;;5103473;28;20183;-63
2021/01/26 00:35:05;;;;;;;4.03;2.60;;;2.10;99.90;;;;;;5111733;28;20182;-63
2021/01/26 00:37:38;;;;;;;3.90;2.60;;;2.20;99.90;;;;;;5111191;28;20271;-63
2021/01/26 00:40:05;;;;;;;1.70;0.20;;;2.00;99.90;;;;;;5109927;28;20487;-63
2021/01/26 00:42:30;;;;;;;9.63;3.80;;;2.00;99.90;;;;;;5112402;28;20173;-63
2021/01/26 00:44:56;;;;;;;9.30;6.20;;;2.00;99.90;;;;;;5111873;28;20156;-63
2021/01/26 00:47:21;;;;;;;1.70;0.20;;;2.00;99.90;;;;;;5110995;28;20212;-63
2021/01/26 00:49:47;;;;;;;2.10;1.00;;;2.00;99.90;;;;;;5112178;28;20233;-63
2021/01/26 00:52:12;;;;;;;1.70;0.20;;;1.90;99.90;;;;;;5110783;28;20178;-62
2021/01/26 00:54:38;;;;;;;3.40;1.50;;;2.00;99.90;;;;;;5112739;28;20430;-63
2021/01/26 00:57:04;;;;;;;1.80;0.30;;;2.00;99.90;;;;;;5112297;28;20203;-63
2021/01/26 00:59:30;;;;;;;3.40;1.05;;;2.00;99.90;;;;;;5107557;28;20184;-63
2021/01/26 01:01:56;;;;;;;8.43;3.73;;;2.00;99.90;;;;;;5109156;28;20203;-63
2021/01/26 01:04:22;;;;;;;1.77;0.30;;;1.90;99.90;;;;;;5110889;28;20231;-62
2021/01/26 01:06:48;;;;;;;4.25;1.88;;;1.90;99.90;;;;;;5111717;28;20206;-62
2021/01/26 01:09:13;;;;;;;2.00;0.37;;;1.90;99.90;;;;;;5110647;28;20211;-63
2021/01/26 01:11:39;;;;;;;6.87;1.67;;;1.90;99.90;;;;;;5111525;28;20668;-63
2021/01/26 01:14:05;;;;;;;2.90;0.97;;;1.90;99.90;;;;;;5111322;28;20203;-63
2021/01/26 01:16:30;;;;;;;1.70;0.20;;;1.90;99.90;;;;;;5112622;28;20221;-62
2021/01/26 01:18:56;;;;;;;3.00;1.03;;;2.00;99.90;;;;;;5112557;28;20191;-62
2021/01/26 01:21:21;;;;;;;2.27;1.17;;;1.90;99.90;;;;;;5113577;28;20194;-63
2021/01/26 01:23:47;;;;;;;1.73;0.20;;;2.00;99.90;;;;;;5113903;28;20172;-63
2021/01/26 01:26:12;;;;;;;6.23;3.80;;;2.00;99.90;;;;;;5111923;28;20214;-62
2021/01/26 01:28:38;;;;;;;5.47;2.70;;;2.00;99.90;;;;;;5111587;28;20211;-63
2021/01/26 01:31:03;;;;;;;1.80;0.20;;;2.00;99.90;;;;;;5112507;28;20196;-63
2021/01/26 01:33:29;;;;;;;4.83;3.40;;;2.00;99.90;;;;;;5109949;28;20187;-63
2021/01/26 01:35:54;;;;;;;7.60;2.93;;;2.00;99.90;;;;;;5103129;28;20188;-63
2021/01/26 01:38:20;;;;;;;1.90;0.53;;;2.00;99.90;;;;;;5094411;28;20215;-63
2021/01/26 01:40:46;;;;;;;1.70;0.20;;;2.10;99.90;;;;;;5093707;28;20226;-63
2021/01/26 01:43:11;;;;;;;2.83;1.13;;;2.00;99.90;;;;;;5093818;28;20187;-63
2021/01/26 01:45:37;;;;;;;6.63;3.03;;;2.00;99.90;;;;;;5094687;28;20188;-63
2021/01/26 01:48:07;;;;;;;1.70;0.20;;;2.00;99.90;;;;;;5100139;28;20223;-63
2021/01/26 01:50:49;;;;;;;9.40;7.00;;;1.90;99.90;;;;;;5097293;28;20208;-62
2021/01/26 01:53:24;;;;;;;1.90;0.60;;;1.90;99.90;;;;;;5084060;28;20180;-62
2021/01/26 01:55:56;;;;;;;2.17;0.65;;;1.90;99.90;;;;;;5105362;28;20184;-63
2021/01/26 01:58:28;;;;;;;8.68;5.03;;;1.90;99.90;;;;;;5104302;28;20205;-63
2021/01/26 02:01:01;;;;;;;10.65;4.63;;;1.90;99.90;;;;;;5105223;28;20651;-63
2021/01/26 02:03:29;;;;;;;5.70;3.85;;;1.90;99.90;;;;;;5107951;28;20199;-63
2021/01/26 02:05:58;;;;;;;3.03;1.50;;;1.90;99.90;;;;;;5109741;28;20168;-63
2021/01/26 02:08:36;;;;;;;61.20;14.63;;;1.90;99.90;;;;;;5111684;28;20163;-63
2021/01/26 02:11:01;;;;;;;8.07;4.63;;;1.90;99.90;;;;;;5111472;28;20187;-63
2021/01/26 02:13:27;;;;;;;10.67;3.83;;;1.90;99.90;;;;;;5113210;28;20192;-63
2021/01/26 02:15:58;;;;;;;2.20;0.63;;;1.80;99.90;;;;;;5112792;28;20203;-63
2021/01/26 02:18:42;;;;;;;2.75;0.93;;;1.80;99.90;;;;;;5101768;28;20259;-63
2021/01/26 02:21:19;;;;;;;4.50;2.30;;;1.80;99.90;;;;;;5092754;28;20177;-63
2021/01/26 02:24:26;;;;;;;1.80;0.20;;;1.90;99.90;;;;;;5093999;28;20174;-62
2021/01/26 02:27:37;;;;;;;4.28;1.75;;;1.90;99.90;;;;;;5046503;28;20225;-63
2021/01/26 02:30:11;;;;;;;3.72;0.57;;;1.90;99.90;;;;;;5089508;28;20203;-62
2021/01/26 02:33:24;;;;;;;1.73;0.20;;;1.90;99.90;;;;;;5091698;28;20263;-63
2021/01/26 02:36:23;;;;;;;9.45;4.63;;;1.90;99.90;;;;;;5111605;28;20175;-63
2021/01/26 02:39:26;;;;;;;8.27;4.45;;;1.80;99.90;;;;;;5107991;28;20179;-63
2021/01/26 02:42:18;;;;;;;6.90;4.15;;;1.80;99.90;;;;;;5111774;28;20213;-62
2021/01/26 02:44:54;;;;;;;1.80;0.20;;;1.70;99.90;;;;;;5092021;28;20180;-63
2021/01/26 02:47:46;;;;;;;1.75;0.20;;;1.70;99.90;;;;;;5092596;28;20246;-62
2021/01/26 02:50:31;;;;;;;1.73;0.20;;;1.80;99.90;;;;;;5099464;28;20294;-62
2021/01/26 02:53:02;;;;;;;5.15;2.90;;;1.70;99.90;;;;;;5096023;28;20204;-62
2021/01/26 02:56:00;;;;;;;1.80;0.20;;;1.70;99.90;;;;;;5087702;28;20203;-63
2021/01/26 02:58:40;;;;;;;2.55;0.82;;;1.80;99.90;;;;;;5090478;28;20186;-62
2021/01/26 03:01:06;;;;;;;2.53;1.00;;;1.80;99.90;;;;;;5090953;28;20175;-63
2021/01/26 03:03:40;;;;;;;1.75;0.20;;;1.80;99.90;;;;;;5092519;28;20471;-62
2021/01/26 03:06:28;;;;;;;3.45;1.38;;;1.80;99.90;;;;;;5089395;28;20319;-62
2021/01/26 03:09:00;;;;;;;1.80;0.30;;;1.80;99.90;;;;;;5090210;28;20234;-62
2021/01/26 03:11:35;;;;;;;1.77;0.20;;;1.80;99.90;;;;;;5091711;28;20621;-62
2021/01/26 03:14:12;;;;;;;12.63;7.07;;;1.80;99.90;;;;;;5092767;28;20211;-62
2021/01/26 03:16:42;;;;;;;2.65;0.73;;;1.90;99.90;;;;;;5093290;28;20615;-62
2021/01/26 03:19:16;;;;;;;2.20;0.60;;;1.90;99.90;;;;;;5093124;28;20194;-62
2021/01/26 03:21:45;;;;;;;1.80;0.35;;;1.90;99.90;;;;;;5093811;28;20263;-62
2021/01/26 03:24:19;;;;;;;2.22;1.48;;;1.90;99.90;;;;;;5091158;28;20168;-62
2021/01/26 03:26:45;;;;;;;3.08;2.58;;;1.90;99.90;;;;;;5093103;28;20272;-62
2021/01/26 03:29:18;;;;;;;5.30;3.90;;;1.90;99.90;;;;;;5092924;28;20219;-63
2021/01/26 03:31:52;;;;;;;1.73;0.20;;;2.00;99.90;;;;;;5094494;28;20392;-62
2021/01/26 03:34:17;;;;;;;10.05;1.73;;;2.00;99.90;;;;;;5093588;28;20677;-63
2021/01/26 03:36:43;;;;;;;7.27;3.87;;;2.00;99.90;;;;;;5093496;28;20208;-63
2021/01/26 03:39:10;;;;;;;3.70;1.40;;;2.00;99.90;;;;;;5094423;28;20187;-62
2021/01/26 03:41:35;;;;;;;4.65;2.30;;;2.00;99.90;;;;;;5093275;28;20576;-62
2021/01/26 03:44:01;;;;;;;1.70;0.20;;;2.00;99.90;;;;;;5092884;28;20263;-62
2021/01/26 03:46:37;;;;;;;2.40;0.50;;;2.00;99.90;;;;;;5093969;28;20284;-63
2021/01/26 03:49:31;;;;;;;1.70;0.20;;;2.10;99.90;;;;;;5092197;28;20456;-63
2021/01/26 03:52:28;;;;;;;1.70;0.20;;;2.10;99.90;;;;;;5089201;28;20244;-62
2021/01/26 03:55:03;;;;;;;1.80;0.30;;;2.10;99.90;;;;;;5090563;28;20646;-63
2021/01/26 03:57:52;;;;;;;2.33;0.73;;;2.10;99.90;;;;;;5094074;28;20211;-63
2021/01/26 04:00:33;;;;;;;11.63;6.18;;;2.10;99.90;;;;;;5092052;28;20198;-62
2021/01/26 04:03:28;;;;;;;3.65;2.15;;;2.10;99.90;;;;;;5088562;28;20282;-62
2021/01/26 04:06:05;;;;;;;1.73;0.30;;;2.10;99.90;;;;;;5086037;28;20505;-62
2021/01/26 04:08:42;;;;;;;3.08;1.52;;;2.10;99.90;;;;;;5092778;28;20172;-62
2021/01/26 04:11:26;;;;;;;8.95;1.60;;;2.10;99.90;;;;;;5090152;28;20226;-63
2021/01/26 04:14:06;;;;;;;3.80;2.25;;;2.10;99.90;;;;;;5094573;28;21468;-62
2021/01/26 04:16:43;;;;;;;6.53;3.33;;;2.10;99.90;;;;;;5094365;28;20283;-62
2021/01/26 04:19:12;;;;;;;2.20;1.25;;;2.10;99.90;;;;;;5093918;28;20183;-62
2021/01/26 04:21:38;;;;;;;1.70;0.20;;;2.10;99.90;;;;;;5093901;28;20180;-62
2021/01/26 04:24:04;;;;;;;6.85;3.53;;;2.10;99.90;;;;;;5094132;28;20190;-63
2021/01/26 04:26:33;;;;;;;6.35;3.42;;;2.10;99.90;;;;;;5092039;28;20203;-62
2021/01/26 04:28:59;;;;;;;3.17;1.55;;;2.10;99.90;;;;;;5092734;28;20214;-62
2021/01/26 04:31:26;;;;;;;10.30;5.70;;;2.20;99.90;;;;;;5092230;28;20192;-62
2021/01/26 04:33:51;;;;;;;4.30;1.48;;;2.20;99.90;;;;;;5090929;28;20177;-62
2021/01/26 04:36:20;;;;;;;4.27;2.37;;;2.20;99.90;;;;;;5092735;28;20562;-62
2021/01/26 04:38:46;;;;;;;1.90;0.40;;;2.20;99.90;;;;;;5092079;28;20540;-62
2021/01/26 04:41:24;;;;;;;9.77;5.10;;;2.20;99.90;;;;;;5092271;28;20187;-62
2021/01/26 04:44:06;;;;;;;10.98;2.05;;;2.20;99.90;;;;;;5086767;28;20736;-62
2021/01/26 04:46:48;;;;;;;9.10;6.00;;;2.30;99.90;;;;;;5091510;28;20219;-62
2021/01/26 04:49:23;;;;;;;3.08;1.05;;;2.20;99.90;;;;;;5090780;28;20305;-62
2021/01/26 04:52:05;;;;;;;2.10;0.52;;;2.30;99.90;;;;;;5092732;28;20183;-62
2021/01/26 04:54:54;;;;;;;6.93;4.18;;;2.20;99.90;;;;;;5092830;28;20190;-62
2021/01/26 04:57:37;;;;;;;8.00;5.18;;;2.20;99.90;;;;;;5091609;28;20212;-62
2021/01/26 05:00:21;;;;;;;1.77;0.20;;;2.20;99.90;;;;;;5091543;28;20191;-62
2021/01/26 05:03:12;;;;;;;2.38;0.75;;;2.30;99.90;;;;;;5086776;28;20674;-62
2021/01/26 05:05:42;;;;;;;7.28;5.28;;;2.30;99.90;;;;;;5089739;28;20547;-62
2021/01/26 05:08:17;;;;;;;1.70;0.22;;;2.30;99.90;;;;;;5091252;28;20183;-62
2021/01/26 05:10:48;;;;;;;1.95;0.90;;;2.30;99.90;;;;;;5091296;28;20199;-62
2021/01/26 05:13:33;;;;;;;1.73;0.20;;;2.30;99.90;;;;;;5092468;28;20188;-63
2021/01/26 05:16:09;;;;;;;3.13;1.38;;;2.30;99.90;;;;;;5090981;28;20357;-63
2021/01/26 05:18:44;;;;;;;4.28;1.23;;;2.30;99.90;;;;;;5088317;28;20201;-62
2021/01/26 05:21:22;;;;;;;1.73;0.20;;;2.30;99.90;;;;;;5093721;28;20176;-62
2021/01/26 05:23:55;;;;;;;1.80;0.30;;;2.30;99.90;;;;;;5090348;28;20176;-62
2021/01/26 05:26:20;;;;;;;8.18;4.13;;;2.30;99.90;;;;;;5093070;28;20207;-62
2021/01/26 05:28:46;;;;;;;12.00;5.20;;;2.30;99.90;;;;;;5091667;28;20219;-63
2021/01/26 05:31:26;;;;;;;4.97;2.33;;;2.40;99.90;;;;;;5085951;28;20179;-63
2021/01/26 05:33:52;;;;;;;1.70;0.20;;;2.40;99.90;;;;;;5090404;28;20484;-62
2021/01/26 05:36:18;;;;;;;5.85;3.05;;;2.40;99.90;;;;;;5091108;28;20203;-62
2021/01/26 05:38:43;;;;;;;3.07;1.27;;;2.40;99.90;;;;;;5091378;28;20543;-63
2021/01/26 05:41:11;;;;;;;1.70;0.20;;;2.40;99.90;;;;;;5103453;22;20494;-58
2021/01/26 05:43:37;;;;;;;12.18;5.25;;;2.40;99.90;;;;;;5064665;28;20635;-58
2021/01/26 05:46:08;;;;;;;4.45;3.55;;;2.40;99.90;;;;;;5072156;28;20180;-58
2021/01/26 05:48:49;;;;;;;6.55;3.30;;;2.40;99.90;;;;;;5063054;28;20184;-58
2021/01/26 05:51:25;;;;;;;1.90;0.45;;;2.40;99.90;;;;;;5072738;28;20208;-60
2021/01/26 05:54:00;;;;;;;7.00;2.85;;;2.40;99.90;;;;;;5073164;28;20214;-60
2021/01/26 05:56:28;;;;;;;1.70;0.20;;;2.40;99.90;;;;;;5069229;28;20184;-58
2021/01/26 05:58:53;;;;;;;10.02;3.22;;;2.50;99.90;;;;;;5069875;28;20631;-60
2021/01/26 06:01:22;;;;;;;3.07;0.93;;;2.50;99.90;;;;;;5072693;28;20204;-58
2021/01/26 06:04:11;;;;;;;1.90;0.47;;;2.50;99.90;;;;;;5074026;28;20655;-58
2021/01/26 06:06:59;;;;;;;1.70;0.20;;;2.50;99.90;;;;;;5063706;28;20192;-58
2021/01/26 06:09:33;;;;;;;1.77;0.20;;;2.60;99.90;;;;;;5068119;28;20211;-57
2021/01/26 06:12:15;;;;;;;1.70;0.20;;;2.60;99.90;;;;;;5071815;28;20651;-58
2021/01/26 06:14:43;;;;;;;2.70;1.15;;;2.60;99.90;;;;;;5071223;28;20208;-58
2021/01/26 06:17:12;;;;;;;1.70;0.20;;;2.60;99.90;;;;;;5067486;28;20176;-59
2021/01/26 06:19:38;;;;;;;5.93;2.70;;;2.60;99.90;;;;;;5071559;28;20196;-59
2021/01/26 06:22:04;;;;;;;1.73;0.20;;;2.50;99.90;;;;;;5073243;28;20267;-59
2021/01/26 06:24:34;;;;;;;1.70;0.20;;;2.60;99.90;;;;;;5051375;28;20294;-59
2021/01/26 06:27:30;;;;;;;3.78;1.35;;;2.60;99.90;;;;;;5069637;28;20884;-58
2021/01/26 06:30:02;;;;;;;1.80;0.20;;;2.60;99.90;;;;;;5072087;28;20602;-58
2021/01/26 06:33:10;;;;;;;5.07;2.72;;;2.60;99.90;;;;;;5071258;28;20219;-59
2021/01/26 06:36:13;;;;;;;1.73;0.20;;;2.70;99.90;;;;;;5072532;28;20272;-58
2021/01/26 06:39:19;;;;;;;1.70;0.20;;;2.70;99.90;;;;;;5072096;28;20188;-59
2021/01/26 06:42:11;;;;;;;2.08;0.50;;;2.80;99.90;;;;;;5066313;28;20188;-59
2021/01/26 06:45:04;;;;;;;4.30;2.28;;;2.70;99.90;;;;;;5070865;28;20180;-59
2021/01/26 06:47:49;;;;;;;4.00;1.95;;;2.70;99.90;;;;;;5072147;28;20173;-59
2021/01/26 06:50:24;;;;;;;2.85;1.20;;;2.70;99.90;;;;;;5072336;28;20243;-59
2021/01/26 06:52:58;;;;;;;1.90;0.60;;;2.70;99.90;;;;;;5071967;28;20172;-59
2021/01/26 06:56:06;;;;;;;8.25;4.10;;;2.70;99.90;;;;;;5072676;28;20176;-59
2021/01/26 06:59:10;;;;;;;3.85;1.40;;;2.70;99.90;;;;;;5071365;28;20264;-59
2021/01/26 07:01:48;;;;;;;1.90;0.52;;;2.70;99.90;;;;;;5071713;28;20188;-59
2021/01/26 07:04:25;;;;;;;7.65;2.70;;;2.70;99.90;;;;;;5069825;28;20176;-59
2021/01/26 07:06:53;;;;;;;4.00;1.98;;;2.70;99.90;;;;;;5071954;28;20558;-59
2021/01/26 07:09:38;;;;;;;3.25;1.92;;;2.70;99.90;;;;;;5070449;28;20215;-59
2021/01/26 07:12:30;;;;;;;1.70;0.20;;;2.70;99.90;;;;;;5069214;28;20185;-59
2021/01/26 07:15:48;;;;;;;4.40;2.80;;;2.70;99.90;;;;;;5072869;28;20176;-61
2021/01/26 07:18:27;;;;;;;7.78;2.35;;;2.70;99.90;;;;;;4991922;28;20184;-60
2021/01/26 07:21:26;;;;;;;4.18;1.98;;;2.70;99.90;;;;;;5072053;28;20688;-64
2021/01/26 07:24:14;;;;;;;1.90;0.45;;;2.80;99.90;;;;;;5073051;28;20691;-60
2021/01/26 07:27:07;;;;;;;4.10;2.47;;;2.80;99.90;;;;;;5069067;28;20525;-61
2021/01/26 07:29:58;;;;;;;2.95;1.00;;;2.70;99.90;;;;;;5073370;28;20216;-59
2021/01/26 07:32:50;;;;;;;1.75;0.20;;;2.80;99.90;;;;;;5080840;28;20240;-60
2021/01/26 07:35:22;;;;;;;1.73;0.20;;;2.80;99.90;;;;;;5075206;28;20271;-60
2021/01/26 07:38:00;;;;;;;4.82;2.50;;;2.80;99.90;;;;;;5067707;28;20181;-60
2021/01/26 07:40:33;;;;;;;3.20;1.48;;;2.80;99.90;;;;;;5073078;28;20223;-60
2021/01/26 07:43:11;;;;;;;1.73;0.20;;;2.80;99.90;;;;;;5070929;28;20607;-60
2021/01/26 07:45:47;;;;;;;7.25;3.58;;;2.80;99.90;;;;;;5047318;28;20189;-61
2021/01/26 07:48:19;;;;;;;6.68;2.45;;;2.90;99.90;;;;;;5071653;28;20184;-61
2021/01/26 07:50:49;;;;;;;4.53;2.50;;;2.90;99.90;;;;;;5072180;28;20209;-60
2021/01/26 07:53:23;;;;;;;2.65;1.55;;;2.90;99.90;;;;;;5071061;28;20191;-61
2021/01/26 07:56:13;;;;;;;2.90;0.95;;;2.90;99.90;;;;;;5070711;28;20266;-61
2021/01/26 07:58:44;;;;;;;1.70;0.20;;;2.90;99.90;;;;;;5074456;28;20188;-61
2021/01/26 08:01:10;;;;;;;4.00;2.63;;;2.90;99.90;;;;;;5073564;28;20196;-61
2021/01/26 08:03:36;;;;;;;2.58;0.68;;;3.00;99.90;;;;;;5056679;28;20181;-61
2021/01/26 08:06:01;;;;;;;7.63;2.30;;;3.00;99.90;;;;;;5064832;28;20185;-61
2021/01/26 08:08:37;;;;;;;3.60;1.37;;;3.10;99.90;;;;;;5073761;28;20208;-61
2021/01/26 08:11:18;;;;;;;5.32;2.33;;;3.10;99.90;;;;;;5070941;28;20212;-60
2021/01/26 08:14:03;;;;;;;3.30;1.73;;;3.00;99.90;;;;;;5073973;28;20267;-61
2021/01/26 08:16:33;;;;;;;1.73;0.20;;;3.10;99.90;;;;;;5073564;28;20535;-60
2021/01/26 08:19:01;;;;;;;1.73;0.20;;;3.10;99.90;;;;;;5075129;28;20211;-59
2021/01/26 08:21:29;;;;;;;2.10;0.98;;;3.10;99.90;;;;;;5075138;28;20212;-60
2021/01/26 08:24:08;;;;;;;1.75;0.28;;;3.20;99.90;;;;;;5075497;28;20185;-61
2021/01/26 08:26:33;;;;;;;4.47;2.25;;;3.20;99.90;;;;;;5073495;28;20212;-60
2021/01/26 08:28:59;;;;;;;3.90;1.60;;;3.20;99.90;;;;;;5069147;28;20571;-61
2021/01/26 08:31:32;;;;;;;2.93;1.10;;;3.30;99.90;;;;;;5054228;28;20311;-62
2021/01/26 08:34:21;;;;;;;2.55;0.85;;;3.30;99.90;;;;;;5076517;28;20195;-60
2021/01/26 08:37:07;;;;;;;2.20;0.80;;;3.40;99.90;;;;;;5072522;28;20177;-61
2021/01/26 08:39:43;;;;;;;2.20;0.93;;;3.50;99.90;;;;;;5072723;28;20216;-59
2021/01/26 08:42:10;;;;;;;5.72;2.20;;;3.50;99.90;;;;;;5074825;28;20523;-62
2021/01/26 08:44:35;;;;;;;2.08;0.60;;;3.60;99.90;;;;;;5072300;28;20172;-61
2021/01/26 08:47:39;;;;;;;3.17;1.20;;;3.60;99.90;;;;;;5073654;28;20219;-61
2021/01/26 08:50:15;;;;;;;2.88;1.05;;;3.50;99.90;;;;;;5068406;28;20212;-60
2021/01/26 08:52:40;;;;;;;1.80;0.30;;;3.50;99.90;;;;;;5071727;28;20191;-60
2021/01/26 08:55:07;;;;;;;2.23;0.97;;;3.50;99.90;;;;;;5072230;28;20177;-60
2021/01/26 08:57:32;;;;;;;2.90;1.00;;;3.40;99.90;;;;;;5070690;28;20185;-61
2021/01/26 09:00:14;;;;;;;4.43;2.20;;;3.30;99.90;;;;;;5074494;28;20223;-59
2021/01/26 09:02:43;;;;;;;1.73;0.20;;;3.20;99.90;;;;;;5072576;28;20188;-60
2021/01/26 09:05:10;;;;;;;5.43;3.05;;;3.20;99.90;;;;;;5072435;28;20185;-60
2021/01/26 09:07:49;;;;;;;1.70;0.20;;;3.20;99.90;;;;;;5073604;28;20723;-60
2021/01/26 09:10:36;;;;;;;3.88;1.75;;;3.20;99.90;;;;;;5072124;28;20227;-60
2021/01/26 09:13:08;;;;;;;3.63;2.28;;;3.20;99.90;;;;;;5074494;28;20302;-60
2021/01/26 09:15:44;;;;;;;2.15;1.05;;;3.30;99.90;;;;;;5056714;28;20178;-60
2021/01/26 09:18:15;;;;;;;7.63;2.85;;;3.30;99.90;;;;;;5076615;28;20251;-61
2021/01/26 09:20:41;;;;;;;2.10;0.80;;;3.30;99.90;;;;;;5056605;28;20204;-61
2021/01/26 09:23:09;;;;;;;1.70;0.20;;;3.30;99.90;;;;;;5075761;28;20263;-60
2021/01/26 09:25:45;;;;;;;6.20;2.20;;;3.40;99.90;;;;;;5067976;28;20725;-60
2021/01/26 09:28:14;;;;;;;2.70;1.63;;;3.30;99.90;;;;;;5072083;28;20230;-60
2021/01/26 09:30:41;;;;;;;1.70;0.20;;;3.30;99.90;;;;;;5067106;28;20199;-60
2021/01/26 09:33:10;;;;;;;2.30;0.55;;;3.40;99.90;;;;;;5072967;28;20267;-61
2021/01/26 09:35:37;;;;;;;3.50;1.15;;;3.40;99.90;;;;;;5073029;28;20669;-61
2021/01/26 09:38:04;;;;;;;1.95;0.60;;;3.40;99.90;;;;;;5074729;28;20565;-60
2021/01/26 09:40:30;;;;;;;1.77;0.20;;;3.40;99.90;;;;;;5067771;28;20295;-60
2021/01/26 09:43:11;;;;;;;1.70;0.20;;;3.40;99.90;;;;;;5070103;28;20218;-60
2021/01/26 09:45:38;;;;;;;2.22;0.60;;;3.40;99.90;;;;;;5073544;28;20196;-61
2021/01/26 09:48:04;;;;;;;2.10;1.10;;;3.40;99.90;;;;;;5072974;28;20358;-60
2021/01/26 09:50:30;;;;;;;4.85;1.52;;;3.50;99.90;;;;;;5068476;28;20208;-61
2021/01/26 09:52:58;;;;;;;8.25;3.22;;;3.50;99.90;;;;;;5074486;28;20278;-61
2021/01/26 09:55:25;;;;;;;4.47;2.35;;;3.50;99.90;;;;;;5069495;28;20205;-61
2021/01/26 09:57:54;;;;;;;3.65;0.65;;;3.50;99.90;;;;;;5070012;28;20235;-61
2021/01/26 10:00:23;;;;;;;1.73;0.20;;;3.50;99.90;;;;;;5073031;28;20200;-61
2021/01/26 10:02:53;;;;;;;3.25;0.88;;;3.50;99.90;;;;;;5072189;28;20699;-60
2021/01/26 10:05:22;;;;;;;1.70;0.20;;;3.50;99.90;;;;;;5070686;28;20184;-61
2021/01/26 10:08:07;;;;;;;1.70;0.20;;;3.60;99.90;;;;;;5062688;28;20239;-62
2021/01/26 10:10:33;;;;;;;1.73;0.20;;;3.60;99.90;;;;;;5068343;28;20208;-61
2021/01/26 10:13:23;;;;;;;4.55;1.80;;;3.60;99.90;;;;;;5070585;28;20193;-61
2021/01/26 10:15:49;;;;;;;2.72;1.70;;;3.60;99.90;;;;;;5070727;28;20176;-60
2021/01/26 10:18:30;;;;;;;1.70;0.20;;;3.60;99.90;;;;;;5069905;28;20236;-60
2021/01/26 10:21:02;;;;;;;2.58;0.30;;;3.60;99.90;;;;;;5070970;28;20450;-60
2021/01/26 10:23:43;;;;;;;3.45;1.48;;;3.70;99.90;;;;;;5070645;28;20218;-60
2021/01/26 10:26:25;;;;;;;2.50;0.95;;;3.60;99.90;;;;;;5073146;28;20202;-61
2021/01/26 10:29:19;;;;;;;3.60;1.42;;;3.70;99.90;;;;;;5071395;28;20189;-61
2021/01/26 10:31:49;;;;;;;3.85;1.75;;;3.70;99.90;;;;;;5073746;28;20177;-61
2021/01/26 10:34:34;;;;;;;1.70;0.20;;;3.70;99.90;;;;;;5070892;28;20169;-60
2021/01/26 10:37:10;;;;;;;3.45;1.10;;;3.80;99.90;;;;;;5073280;28;20563;-62
2021/01/26 10:39:36;;;;;;;6.68;1.02;;;3.80;99.90;;;;;;5069203;28;20215;-60
2021/01/26 10:42:14;;;;;;;1.70;0.20;;;3.80;99.90;;;;;;5073305;28;20184;-59
2021/01/26 10:44:46;;;;;;;1.77;0.30;;;3.80;99.90;;;;;;5069941;28;20237;-59
2021/01/26 10:47:27;;;;;;;1.73;0.20;;;3.80;99.90;;;;;;5072517;28;20185;-59
2021/01/26 10:49:56;;;;;;;6.18;1.63;;;3.80;99.90;;;;;;5066176;28;20208;-58
2021/01/26 10:52:43;;;;;;;5.95;2.55;;;3.90;99.90;;;;;;5072223;28;20674;-59
2021/01/26 10:55:12;;;;;;;2.30;0.70;;;3.90;99.90;;;;;;5065661;28;20216;-59
2021/01/26 10:57:40;;;;;;;2.10;0.75;;;3.90;99.90;;;;;;5070648;28;20186;-61
2021/01/26 11:00:07;;;;;;;1.95;0.60;;;3.90;99.90;;;;;;5071199;28;20609;-59
2021/01/26 11:02:33;;;;;;;3.40;1.30;;;4.00;99.90;;;;;;5070561;28;20185;-59
2021/01/26 11:04:59;;;;;;;2.77;1.03;;;4.00;99.90;;;;;;5070524;28;20582;-59
2021/01/26 11:07:24;;;;;;;22.47;2.40;;;4.10;99.90;;;;;;5068595;28;20208;-59
2021/01/26 11:09:50;;;;;;;2.10;0.53;;;4.10;99.90;;;;;;5067530;28;20441;-59
2021/01/26 11:12:18;;;;;;;1.93;0.80;;;4.20;99.90;;;;;;5069428;28;20693;-59
2021/01/26 11:14:44;;;;;;;2.50;0.75;;;4.20;99.90;;;;;;5071626;28;20176;-59
2021/01/26 11:17:10;;;;;;;1.73;0.20;;;4.30;99.90;;;;;;5070352;28;20654;-60
2021/01/26 11:19:35;;;;;;;4.10;0.40;;;4.30;99.90;;;;;;5069448;28;20204;-60
2021/01/26 11:22:01;;;;;;;5.50;1.23;;;4.30;99.90;;;;;;5070937;28;20180;-62
2021/01/26 11:24:26;;;;;;;2.00;0.40;;;4.30;99.90;;;;;;5069793;28;20665;-61
2021/01/26 11:26:52;;;;;;;3.73;1.27;;;4.20;99.90;;;;;;5068815;28;20223;-60
2021/01/26 11:29:18;;;;;;;2.93;1.20;;;4.20;99.90;;;;;;5068828;28;20208;-65
2021/01/26 11:31:43;;;;;;;6.30;2.47;;;4.10;99.90;;;;;;5075934;28;20272;-63
2021/01/26 11:34:09;;;;;;;3.70;1.43;;;4.10;99.90;;;;;;5075137;28;20176;-63
2021/01/26 11:36:34;;;;;;;3.40;1.10;;;4.10;99.90;;;;;;5076573;28;20195;-62
2021/01/26 11:39:00;;;;;;;1.90;0.40;;;4.10;99.90;;;;;;5075174;28;20425;-62
2021/01/26 11:41:25;;;;;;;3.10;0.93;;;4.10;99.90;;;;;;5075386;28;20266;-63
2021/01/26 11:43:51;;;;;;;4.33;0.90;;;4.10;99.90;;;;;;5072986;28;20200;-62
2021/01/26 11:46:17;;;;;;;1.90;0.30;;;4.00;99.90;;;;;;5052834;28;20204;-62
2021/01/26 11:48:43;;;;;;;2.10;0.50;;;4.00;99.90;;;;;;5074579;28;20789;-63
2021/01/26 11:51:08;;;;;;;6.90;1.65;;;4.00;99.90;;;;;;5074151;28;20209;-64
2021/01/26 11:53:34;;;;;;;4.27;1.30;;;4.10;99.90;;;;;;5074375;28;20176;-63
2021/01/26 11:56:00;;;;;;;1.80;0.30;;;4.10;99.90;;;;;;5074263;28;20180;-63
2021/01/26 11:58:27;;;;;;;3.85;1.08;;;4.10;99.90;;;;;;5075119;28;20204;-63
2021/01/26 12:00:53;;;;;;;4.20;1.30;;;4.10;99.90;;;;;;5077092;28;20189;-64
2021/01/26 12:03:19;;;;;;;3.28;0.70;;;4.10;99.90;;;;;;5076499;28;20712;-63
2021/01/26 12:05:45;;;;;;;4.53;1.60;;;4.10;99.90;;;;;;5079723;28;20173;-63
2021/01/26 12:08:11;;;;;;;2.47;0.97;;;4.20;99.90;;;;;;5056454;28;20184;-63
2021/01/26 12:10:37;;;;;;;2.95;1.15;;;4.20;99.90;;;;;;5071783;28;20209;-64
2021/01/26 12:13:04;;;;;;;2.63;1.17;;;4.20;99.90;;;;;;5069119;28;20180;-64
2021/01/26 12:15:33;;;;;;;9.77;1.77;;;4.20;99.90;;;;;;5058768;28;20177;-64
2021/01/26 12:17:59;;;;;;;4.45;1.52;;;4.20;99.90;;;;;;5074439;28;20176;-63
2021/01/26 12:20:27;;;;;;;2.70;1.00;;;4.20;99.90;;;;;;5075192;28;20281;-64
2021/01/26 12:22:54;;;;;;;2.28;0.47;;;4.20;99.90;;;;;;5079731;28;20434;-65
2021/01/26 12:25:21;;;;;;;1.73;0.20;;;4.30;99.90;;;;;;5057896;28;20189;-64
2021/01/26 12:27:47;;;;;;;2.20;0.40;;;4.30;99.90;;;;;;5077165;28;20207;-63
2021/01/26 12:30:14;;;;;;;7.10;1.43;;;4.40;99.90;;;;;;5072881;28;20790;-63
2021/01/26 12:32:40;;;;;;;2.17;0.50;;;4.40;99.90;;;;;;5072737;28;20238;-64
2021/01/26 12:35:28;;;;;;;2.50;0.80;;;4.40;99.90;;;;;;5075380;28;20280;-64
2021/01/26 12:37:54;;;;;;;1.90;0.35;;;4.30;99.90;;;;;;5072454;28;20443;-64
2021/01/26 12:40:20;;;;;;;2.77;0.53;;;4.30;99.90;;;;;;5071497;28;20223;-64
2021/01/26 12:42:46;;;;;;;2.10;0.43;;;4.30;99.90;;;;;;5075499;28;20682;-63
2021/01/26 12:45:16;;;;;;;4.50;1.60;;;4.30;99.90;;;;;;5072511;28;20189;-63
2021/01/26 12:47:42;;;;;;;3.40;0.93;;;4.40;99.90;;;;;;5071619;28;20443;-64
2021/01/26 12:50:10;;;;;;;5.50;0.93;;;4.40;99.90;;;;;;5068916;28;20218;-63
2021/01/26 12:52:36;;;;;;;2.60;0.85;;;4.40;99.90;;;;;;5073178;28;20223;-62
2021/01/26 12:55:02;;;;;;;2.47;0.50;;;4.50;99.90;;;;;;5075219;28;20703;-63
2021/01/26 12:57:27;;;;;;;1.70;0.20;;;4.50;99.90;;;;;;5074680;28;20229;-62
2021/01/26 12:59:53;;;;;;;1.87;0.40;;;4.50;99.90;;;;;;5073065;28;20748;-62
2021/01/26 13:02:20;;;;;;;2.20;0.60;;;4.60;99.90;;;;;;5074113;28;20192;-62
2021/01/26 13:04:46;;;;;;;2.30;0.60;;;4.60;99.90;;;;;;5080983;28;20659;-65
2021/01/26 13:07:11;;;;;;;1.70;0.20;;;4.70;99.90;;;;;;5052462;28;20189;-62
2021/01/26 13:09:37;;;;;;;3.90;1.10;;;4.70;99.90;;;;;;5107236;22;20265;-65
2021/01/26 13:12:02;;;;;;;3.83;1.50;;;4.70;99.90;;;;;;5091363;28;20190;-65
2021/01/26 13:14:28;;;;;;;8.60;0.87;;;4.70;99.90;;;;;;5090786;28;20172;-65
2021/01/26 13:16:53;;;;;;;3.40;1.27;;;4.70;99.90;;;;;;5092800;28;20658;-65
2021/01/26 13:19:21;;;;;;;5.00;1.57;;;4.70;99.90;;;;;;5091724;28;20218;-65
2021/01/26 13:21:47;;;;;;;11.48;1.25;;;4.70;99.90;;;;;;5092680;28;20219;-65
2021/01/26 13:24:13;;;;;;;2.53;0.60;;;4.70;99.90;;;;;;5093303;28;20184;-65
2021/01/26 13:26:39;;;;;;;2.53;1.00;;;4.70;99.90;;;;;;5092145;28;20175;-65
2021/01/26 13:29:05;;;;;;;4.93;1.37;;;4.70;99.90;;;;;;5089361;28;20478;-66